sensor_id;sensor_type;location;lat;lon;timestamp;P1;durP1;ratioP1;P2;durP2;ratioP2
44276;SDS011;29973;43.742;1.236;2023-03-23T00:00:05;7.85;;;3.30;;
44276;SDS011;29973;43.742;1.236;2023-03-23T00:02:32;5.50;;;2.33;;
44276;SDS011;29973;43.742;1.236;2023-03-23T00:05:00;5.05;;;1.95;;
44276;SDS011;29973;43.742;1.236;2023-03-23T00:07:28;4.20;;;2.40;;
44276;SDS011;29973;43.742;1.236;2023-03-23T00:09:54;2.83;;;2.40;;
44276;SDS011;29973;43.742;1.236;2023-03-23T00:12:27;3.90;;;1.95;;
44276;SDS011;29973;43.742;1.236;2023-03-23T00:15:07;2.72;;;1.77;;
44276;SDS011;29973;43.742;1.236;2023-03-23T00:17:38;2.20;;;1.70;;
44276;SDS011;29973;43.742;1.236;2023-03-23T00:20:05;3.55;;;1.80;;
44276;SDS011;29973;43.742;1.236;2023-03-23T00:22:32;4.72;;;1.40;;
44276;SDS011;29973;43.742;1.236;2023-03-23T00:25:02;5.95;;;1.58;;
44276;SDS011;29973;43.742;1.236;2023-03-23T00:27:29;3.65;;;1.45;;
44276;SDS011;29973;43.742;1.236;2023-03-23T00:29:55;3.88;;;1.33;;
44276;SDS011;29973;43.742;1.236;2023-03-23T00:32:22;4.75;;;1.50;;
44276;SDS011;29973;43.742;1.236;2023-03-23T00:34:54;3.50;;;1.65;;
44276;SDS011;29973;43.742;1.236;2023-03-23T00:37:20;5.10;;;1.55;;
44276;SDS011;29973;43.742;1.236;2023-03-23T00:39:46;3.00;;;1.65;;
44276;SDS011;29973;43.742;1.236;2023-03-23T00:42:13;2.25;;;1.40;;
44276;SDS011;29973;43.742;1.236;2023-03-23T00:44:40;2.25;;;1.33;;
44276;SDS011;29973;43.742;1.236;2023-03-23T00:47:06;3.58;;;1.30;;
44276;SDS011;29973;43.742;1.236;2023-03-23T00:49:35;2.63;;;1.65;;
44276;SDS011;29973;43.742;1.236;2023-03-23T00:52:03;2.50;;;1.70;;
44276;SDS011;29973;43.742;1.236;2023-03-23T00:54:29;3.60;;;1.40;;
44276;SDS011;29973;43.742;1.236;2023-03-23T00:56:55;3.70;;;1.73;;
44276;SDS011;29973;43.742;1.236;2023-03-23T00:59:21;3.85;;;2.00;;
44276;SDS011;29973;43.742;1.236;2023-03-23T01:01:47;2.28;;;1.38;;
44276;SDS011;29973;43.742;1.236;2023-03-23T01:04:14;3.78;;;1.55;;
44276;SDS011;29973;43.742;1.236;2023-03-23T01:06:41;2.33;;;1.40;;
44276;SDS011;29973;43.742;1.236;2023-03-23T01:09:09;7.93;;;1.50;;
44276;SDS011;29973;43.742;1.236;2023-03-23T01:14:05;4.72;;;1.73;;
44276;SDS011;29973;43.742;1.236;2023-03-23T01:16:31;8.65;;;2.17;;
44276;SDS011;29973;43.742;1.236;2023-03-23T01:18:57;1.75;;;1.33;;
44276;SDS011;29973;43.742;1.236;2023-03-23T01:21:22;4.18;;;1.80;;
44276;SDS011;29973;43.742;1.236;2023-03-23T01:23:50;3.20;;;1.67;;
44276;SDS011;29973;43.742;1.236;2023-03-23T01:26:17;2.10;;;1.70;;
44276;SDS011;29973;43.742;1.236;2023-03-23T01:28:44;2.75;;;1.77;;
44276;SDS011;29973;43.742;1.236;2023-03-23T01:31:11;3.45;;;1.98;;
44276;SDS011;29973;43.742;1.236;2023-03-23T01:33:39;2.90;;;1.75;;
44276;SDS011;29973;43.742;1.236;2023-03-23T01:36:07;4.25;;;1.83;;
44276;SDS011;29973;43.742;1.236;2023-03-23T01:38:35;2.50;;;1.50;;
44276;SDS011;29973;43.742;1.236;2023-03-23T01:41:01;8.27;;;2.00;;
44276;SDS011;29973;43.742;1.236;2023-03-23T01:46:06;3.28;;;1.80;;
44276;SDS011;29973;43.742;1.236;2023-03-23T01:48:32;3.03;;;2.00;;
44276;SDS011;29973;43.742;1.236;2023-03-23T01:53:31;6.15;;;2.28;;
44276;SDS011;29973;43.742;1.236;2023-03-23T01:56:03;4.75;;;2.25;;
44276;SDS011;29973;43.742;1.236;2023-03-23T01:58:32;3.00;;;2.00;;
44276;SDS011;29973;43.742;1.236;2023-03-23T02:01:02;3.17;;;2.38;;
44276;SDS011;29973;43.742;1.236;2023-03-23T02:03:32;5.20;;;2.50;;
44276;SDS011;29973;43.742;1.236;2023-03-23T02:06:01;3.50;;;2.28;;
44276;SDS011;29973;43.742;1.236;2023-03-23T02:08:27;5.50;;;2.42;;
44276;SDS011;29973;43.742;1.236;2023-03-23T02:10:54;3.92;;;2.33;;
44276;SDS011;29973;43.742;1.236;2023-03-23T02:13:20;2.88;;;2.10;;
44276;SDS011;29973;43.742;1.236;2023-03-23T02:18:41;3.88;;;2.38;;
44276;SDS011;29973;43.742;1.236;2023-03-23T02:21:55;6.60;;;2.38;;
44276;SDS011;29973;43.742;1.236;2023-03-23T02:24:49;3.83;;;2.25;;
44276;SDS011;29973;43.742;1.236;2023-03-23T02:38:04;4.35;;;2.50;;
44276;SDS011;29973;43.742;1.236;2023-03-23T02:40:56;8.40;;;2.92;;
44276;SDS011;29973;43.742;1.236;2023-03-23T02:43:27;10.95;;;3.53;;
44276;SDS011;29973;43.742;1.236;2023-03-23T02:45:58;3.97;;;2.85;;
44276;SDS011;29973;43.742;1.236;2023-03-23T02:48:27;5.50;;;3.47;;
44276;SDS011;29973;43.742;1.236;2023-03-23T02:50:55;6.35;;;3.22;;
44276;SDS011;29973;43.742;1.236;2023-03-23T02:53:23;5.88;;;3.35;;
44276;SDS011;29973;43.742;1.236;2023-03-23T02:55:52;6.47;;;3.38;;
44276;SDS011;29973;43.742;1.236;2023-03-23T02:58:20;4.00;;;3.47;;
44276;SDS011;29973;43.742;1.236;2023-03-23T03:00:48;6.20;;;3.90;;
44276;SDS011;29973;43.742;1.236;2023-03-23T03:03:15;8.00;;;4.10;;
44276;SDS011;29973;43.742;1.236;2023-03-23T03:06:00;6.60;;;4.47;;
44276;SDS011;29973;43.742;1.236;2023-03-23T03:08:59;5.38;;;3.92;;
44276;SDS011;29973;43.742;1.236;2023-03-23T03:11:28;7.70;;;4.45;;
44276;SDS011;29973;43.742;1.236;2023-03-23T03:13:58;9.07;;;4.70;;
44276;SDS011;29973;43.742;1.236;2023-03-23T03:16:32;10.60;;;5.35;;
44276;SDS011;29973;43.742;1.236;2023-03-23T03:21:53;7.65;;;5.05;;
44276;SDS011;29973;43.742;1.236;2023-03-23T03:24:22;7.97;;;5.20;;
44276;SDS011;29973;43.742;1.236;2023-03-23T03:26:51;8.65;;;5.25;;
44276;SDS011;29973;43.742;1.236;2023-03-23T03:29:22;9.27;;;5.30;;
44276;SDS011;29973;43.742;1.236;2023-03-23T03:31:51;16.65;;;6.63;;
44276;SDS011;29973;43.742;1.236;2023-03-23T03:34:21;12.60;;;6.77;;
44276;SDS011;29973;43.742;1.236;2023-03-23T03:36:49;11.65;;;6.70;;
44276;SDS011;29973;43.742;1.236;2023-03-23T03:39:17;12.07;;;6.72;;
44276;SDS011;29973;43.742;1.236;2023-03-23T03:41:45;11.48;;;6.63;;
44276;SDS011;29973;43.742;1.236;2023-03-23T03:44:10;15.02;;;7.78;;
44276;SDS011;29973;43.742;1.236;2023-03-23T03:46:36;9.20;;;6.70;;
44276;SDS011;29973;43.742;1.236;2023-03-23T03:49:03;17.38;;;8.00;;
44276;SDS011;29973;43.742;1.236;2023-03-23T03:51:32;13.25;;;7.72;;
44276;SDS011;29973;43.742;1.236;2023-03-23T03:53:58;15.45;;;7.85;;
44276;SDS011;29973;43.742;1.236;2023-03-23T03:56:25;13.77;;;8.27;;
44276;SDS011;29973;43.742;1.236;2023-03-23T03:58:51;13.60;;;8.05;;
44276;SDS011;29973;43.742;1.236;2023-03-23T04:01:18;16.30;;;7.80;;
44276;SDS011;29973;43.742;1.236;2023-03-23T04:03:46;14.55;;;7.78;;
44276;SDS011;29973;43.742;1.236;2023-03-23T04:06:12;16.05;;;8.40;;
44276;SDS011;29973;43.742;1.236;2023-03-23T04:08:38;17.90;;;8.52;;
44276;SDS011;29973;43.742;1.236;2023-03-23T04:11:06;13.60;;;8.00;;
44276;SDS011;29973;43.742;1.236;2023-03-23T04:13:33;14.80;;;8.63;;
44276;SDS011;29973;43.742;1.236;2023-03-23T04:15:59;18.40;;;8.38;;
44276;SDS011;29973;43.742;1.236;2023-03-23T04:18:25;21.85;;;8.32;;
44276;SDS011;29973;43.742;1.236;2023-03-23T04:20:51;15.38;;;8.23;;
44276;SDS011;29973;43.742;1.236;2023-03-23T04:23:18;18.77;;;8.18;;
44276;SDS011;29973;43.742;1.236;2023-03-23T04:25:46;14.70;;;8.60;;
44276;SDS011;29973;43.742;1.236;2023-03-23T04:28:14;13.38;;;9.02;;
44276;SDS011;29973;43.742;1.236;2023-03-23T04:30:42;21.05;;;9.35;;
44276;SDS011;29973;43.742;1.236;2023-03-23T04:33:08;13.38;;;8.85;;
44276;SDS011;29973;43.742;1.236;2023-03-23T04:35:39;18.20;;;9.93;;
44276;SDS011;29973;43.742;1.236;2023-03-23T04:38:10;16.60;;;8.82;;
44276;SDS011;29973;43.742;1.236;2023-03-23T04:40:39;14.07;;;8.55;;
44276;SDS011;29973;43.742;1.236;2023-03-23T04:43:05;18.70;;;8.80;;
44276;SDS011;29973;43.742;1.236;2023-03-23T04:45:32;18.58;;;8.80;;
44276;SDS011;29973;43.742;1.236;2023-03-23T04:47:59;15.60;;;8.45;;
44276;SDS011;29973;43.742;1.236;2023-03-23T04:50:29;16.40;;;8.48;;
44276;SDS011;29973;43.742;1.236;2023-03-23T04:52:58;13.77;;;8.73;;
44276;SDS011;29973;43.742;1.236;2023-03-23T04:55:29;12.48;;;8.68;;
44276;SDS011;29973;43.742;1.236;2023-03-23T04:58:07;15.68;;;9.07;;
44276;SDS011;29973;43.742;1.236;2023-03-23T05:02:59;12.93;;;8.90;;
44276;SDS011;29973;43.742;1.236;2023-03-23T05:05:26;19.17;;;8.38;;
44276;SDS011;29973;43.742;1.236;2023-03-23T05:07:54;18.02;;;9.82;;
44276;SDS011;29973;43.742;1.236;2023-03-23T05:10:20;19.02;;;8.85;;
44276;SDS011;29973;43.742;1.236;2023-03-23T05:12:46;17.02;;;9.43;;
44276;SDS011;29973;43.742;1.236;2023-03-23T05:15:13;17.55;;;9.00;;
44276;SDS011;29973;43.742;1.236;2023-03-23T05:17:40;15.27;;;9.68;;
44276;SDS011;29973;43.742;1.236;2023-03-23T05:20:17;17.60;;;9.13;;
44276;SDS011;29973;43.742;1.236;2023-03-23T05:22:45;14.75;;;10.40;;
44276;SDS011;29973;43.742;1.236;2023-03-23T05:25:15;21.25;;;10.05;;
44276;SDS011;29973;43.742;1.236;2023-03-23T05:27:45;21.13;;;10.67;;
44276;SDS011;29973;43.742;1.236;2023-03-23T05:30:22;17.73;;;10.57;;
44276;SDS011;29973;43.742;1.236;2023-03-23T05:32:48;17.55;;;9.63;;
44276;SDS011;29973;43.742;1.236;2023-03-23T05:35:17;20.90;;;10.05;;
44276;SDS011;29973;43.742;1.236;2023-03-23T05:37:44;16.75;;;9.55;;
44276;SDS011;29973;43.742;1.236;2023-03-23T05:40:10;17.45;;;11.23;;
44276;SDS011;29973;43.742;1.236;2023-03-23T05:42:37;18.45;;;11.15;;
44276;SDS011;29973;43.742;1.236;2023-03-23T05:45:06;21.92;;;11.30;;
44276;SDS011;29973;43.742;1.236;2023-03-23T05:47:34;22.10;;;12.77;;
44276;SDS011;29973;43.742;1.236;2023-03-23T05:50:00;24.05;;;12.55;;
44276;SDS011;29973;43.742;1.236;2023-03-23T05:52:27;26.20;;;12.55;;
44276;SDS011;29973;43.742;1.236;2023-03-23T05:54:53;26.45;;;12.98;;
44276;SDS011;29973;43.742;1.236;2023-03-23T05:57:19;29.83;;;15.43;;
44276;SDS011;29973;43.742;1.236;2023-03-23T05:59:48;28.35;;;13.75;;
44276;SDS011;29973;43.742;1.236;2023-03-23T06:02:14;31.45;;;13.95;;
44276;SDS011;29973;43.742;1.236;2023-03-23T06:04:40;24.05;;;14.10;;
44276;SDS011;29973;43.742;1.236;2023-03-23T06:07:06;25.98;;;14.30;;
44276;SDS011;29973;43.742;1.236;2023-03-23T06:09:33;28.60;;;14.32;;
44276;SDS011;29973;43.742;1.236;2023-03-23T06:11:59;25.65;;;13.93;;
44276;SDS011;29973;43.742;1.236;2023-03-23T06:14:24;30.88;;;14.60;;
44276;SDS011;29973;43.742;1.236;2023-03-23T06:16:51;28.98;;;14.90;;
44276;SDS011;29973;43.742;1.236;2023-03-23T06:19:17;29.27;;;15.38;;
44276;SDS011;29973;43.742;1.236;2023-03-23T06:21:42;32.28;;;15.98;;
44276;SDS011;29973;43.742;1.236;2023-03-23T06:24:08;27.88;;;14.55;;
44276;SDS011;29973;43.742;1.236;2023-03-23T06:26:36;22.10;;;13.32;;
44276;SDS011;29973;43.742;1.236;2023-03-23T06:29:03;25.75;;;14.65;;
44276;SDS011;29973;43.742;1.236;2023-03-23T06:31:36;27.70;;;14.13;;
44276;SDS011;29973;43.742;1.236;2023-03-23T06:34:07;25.40;;;14.45;;
44276;SDS011;29973;43.742;1.236;2023-03-23T06:36:35;37.42;;;17.00;;
44276;SDS011;29973;43.742;1.236;2023-03-23T06:39:02;31.08;;;15.65;;
44276;SDS011;29973;43.742;1.236;2023-03-23T06:41:31;36.80;;;15.75;;
44276;SDS011;29973;43.742;1.236;2023-03-23T06:43:58;30.60;;;15.25;;
44276;SDS011;29973;43.742;1.236;2023-03-23T06:46:24;31.25;;;15.45;;
44276;SDS011;29973;43.742;1.236;2023-03-23T06:48:51;23.08;;;14.35;;
44276;SDS011;29973;43.742;1.236;2023-03-23T06:51:17;26.55;;;14.20;;
44276;SDS011;29973;43.742;1.236;2023-03-23T06:53:43;23.80;;;14.35;;
44276;SDS011;29973;43.742;1.236;2023-03-23T06:56:09;25.38;;;13.77;;
44276;SDS011;29973;43.742;1.236;2023-03-23T06:58:36;29.90;;;13.93;;
44276;SDS011;29973;43.742;1.236;2023-03-23T07:01:03;22.17;;;12.43;;
44276;SDS011;29973;43.742;1.236;2023-03-23T07:03:29;25.55;;;13.95;;
44276;SDS011;29973;43.742;1.236;2023-03-23T07:05:56;21.73;;;12.65;;
44276;SDS011;29973;43.742;1.236;2023-03-23T07:08:22;28.00;;;16.15;;
44276;SDS011;29973;43.742;1.236;2023-03-23T07:10:50;20.65;;;13.50;;
44276;SDS011;29973;43.742;1.236;2023-03-23T07:13:17;23.05;;;12.43;;
44276;SDS011;29973;43.742;1.236;2023-03-23T07:15:43;27.13;;;13.30;;
44276;SDS011;29973;43.742;1.236;2023-03-23T07:18:10;24.88;;;13.32;;
44276;SDS011;29973;43.742;1.236;2023-03-23T07:20:36;25.15;;;13.50;;
44276;SDS011;29973;43.742;1.236;2023-03-23T07:23:02;26.08;;;13.23;;
44276;SDS011;29973;43.742;1.236;2023-03-23T07:25:30;23.15;;;12.60;;
44276;SDS011;29973;43.742;1.236;2023-03-23T07:27:58;20.92;;;12.68;;
44276;SDS011;29973;43.742;1.236;2023-03-23T07:30:25;25.42;;;14.10;;
44276;SDS011;29973;43.742;1.236;2023-03-23T07:32:51;24.20;;;13.52;;
44276;SDS011;29973;43.742;1.236;2023-03-23T07:35:17;24.85;;;12.93;;
44276;SDS011;29973;43.742;1.236;2023-03-23T07:37:42;27.30;;;12.75;;
44276;SDS011;29973;43.742;1.236;2023-03-23T07:40:08;22.15;;;11.70;;
44276;SDS011;29973;43.742;1.236;2023-03-23T07:42:41;23.98;;;13.18;;
44276;SDS011;29973;43.742;1.236;2023-03-23T07:45:09;23.52;;;11.77;;
44276;SDS011;29973;43.742;1.236;2023-03-23T07:47:36;25.27;;;12.20;;
44276;SDS011;29973;43.742;1.236;2023-03-23T07:50:03;24.17;;;11.68;;
44276;SDS011;29973;43.742;1.236;2023-03-23T07:52:29;24.50;;;12.02;;
44276;SDS011;29973;43.742;1.236;2023-03-23T07:54:56;29.98;;;12.52;;
44276;SDS011;29973;43.742;1.236;2023-03-23T07:57:22;21.73;;;11.32;;
44276;SDS011;29973;43.742;1.236;2023-03-23T07:59:47;21.02;;;11.30;;
44276;SDS011;29973;43.742;1.236;2023-03-23T08:02:13;25.25;;;12.70;;
44276;SDS011;29973;43.742;1.236;2023-03-23T08:04:39;22.02;;;11.30;;
44276;SDS011;29973;43.742;1.236;2023-03-23T08:07:05;16.27;;;10.20;;
44276;SDS011;29973;43.742;1.236;2023-03-23T08:09:31;18.88;;;11.05;;
44276;SDS011;29973;43.742;1.236;2023-03-23T08:11:56;21.63;;;11.07;;
44276;SDS011;29973;43.742;1.236;2023-03-23T08:14:22;16.83;;;10.10;;
44276;SDS011;29973;43.742;1.236;2023-03-23T08:16:53;19.67;;;10.65;;
44276;SDS011;29973;43.742;1.236;2023-03-23T08:19:21;16.80;;;10.75;;
44276;SDS011;29973;43.742;1.236;2023-03-23T08:21:47;20.85;;;9.88;;
44276;SDS011;29973;43.742;1.236;2023-03-23T08:24:14;17.25;;;10.23;;
44276;SDS011;29973;43.742;1.236;2023-03-23T08:26:40;14.55;;;9.70;;
44276;SDS011;29973;43.742;1.236;2023-03-23T08:29:06;23.38;;;11.63;;
44276;SDS011;29973;43.742;1.236;2023-03-23T08:31:33;18.83;;;9.85;;
44276;SDS011;29973;43.742;1.236;2023-03-23T08:34:01;22.30;;;10.70;;
44276;SDS011;29973;43.742;1.236;2023-03-23T08:36:29;19.13;;;10.13;;
44276;SDS011;29973;43.742;1.236;2023-03-23T08:38:59;19.75;;;10.30;;
44276;SDS011;29973;43.742;1.236;2023-03-23T08:41:25;18.20;;;10.45;;
44276;SDS011;29973;43.742;1.236;2023-03-23T08:43:51;20.67;;;10.45;;
44276;SDS011;29973;43.742;1.236;2023-03-23T08:46:17;18.80;;;10.68;;
44276;SDS011;29973;43.742;1.236;2023-03-23T08:48:44;21.38;;;10.20;;
44276;SDS011;29973;43.742;1.236;2023-03-23T08:51:10;18.27;;;10.15;;
44276;SDS011;29973;43.742;1.236;2023-03-23T08:53:37;22.67;;;10.25;;
44276;SDS011;29973;43.742;1.236;2023-03-23T08:56:04;16.80;;;9.82;;
44276;SDS011;29973;43.742;1.236;2023-03-23T08:58:34;23.60;;;10.80;;
44276;SDS011;29973;43.742;1.236;2023-03-23T09:01:01;21.05;;;10.60;;
44276;SDS011;29973;43.742;1.236;2023-03-23T09:03:27;18.05;;;10.60;;
44276;SDS011;29973;43.742;1.236;2023-03-23T09:05:53;24.73;;;11.00;;
44276;SDS011;29973;43.742;1.236;2023-03-23T09:08:22;17.33;;;11.65;;
44276;SDS011;29973;43.742;1.236;2023-03-23T09:10:48;17.48;;;10.85;;
44276;SDS011;29973;43.742;1.236;2023-03-23T09:13:15;19.40;;;10.55;;
44276;SDS011;29973;43.742;1.236;2023-03-23T09:15:40;14.73;;;9.15;;
44276;SDS011;29973;43.742;1.236;2023-03-23T09:18:06;18.52;;;10.13;;
44276;SDS011;29973;43.742;1.236;2023-03-23T09:20:32;16.75;;;10.18;;
44276;SDS011;29973;43.742;1.236;2023-03-23T09:22:58;18.58;;;10.52;;
44276;SDS011;29973;43.742;1.236;2023-03-23T09:25:24;21.05;;;11.43;;
44276;SDS011;29973;43.742;1.236;2023-03-23T09:27:56;18.58;;;9.10;;
44276;SDS011;29973;43.742;1.236;2023-03-23T09:30:26;19.70;;;8.82;;
44276;SDS011;29973;43.742;1.236;2023-03-23T09:32:54;13.93;;;8.52;;
44276;SDS011;29973;43.742;1.236;2023-03-23T09:35:20;12.35;;;8.85;;
44276;SDS011;29973;43.742;1.236;2023-03-23T09:37:47;18.70;;;9.35;;
44276;SDS011;29973;43.742;1.236;2023-03-23T09:40:15;12.20;;;7.60;;
44276;SDS011;29973;43.742;1.236;2023-03-23T09:45:30;13.68;;;7.60;;
44276;SDS011;29973;43.742;1.236;2023-03-23T09:50:52;15.43;;;8.50;;
44276;SDS011;29973;43.742;1.236;2023-03-23T09:53:32;19.25;;;9.43;;
44276;SDS011;29973;43.742;1.236;2023-03-23T09:56:03;13.73;;;8.55;;
44276;SDS011;29973;43.742;1.236;2023-03-23T10:01:22;22.13;;;10.20;;
44276;SDS011;29973;43.742;1.236;2023-03-23T10:06:50;18.05;;;10.55;;
44276;SDS011;29973;43.742;1.236;2023-03-23T10:09:17;21.85;;;11.10;;
44276;SDS011;29973;43.742;1.236;2023-03-23T10:22:42;12.98;;;7.55;;
44276;SDS011;29973;43.742;1.236;2023-03-23T10:25:31;9.25;;;6.60;;
44276;SDS011;29973;43.742;1.236;2023-03-23T10:28:05;11.18;;;6.68;;
44276;SDS011;29973;43.742;1.236;2023-03-23T10:30:36;12.07;;;6.35;;
44276;SDS011;29973;43.742;1.236;2023-03-23T10:35:55;15.27;;;6.57;;
44276;SDS011;29973;43.742;1.236;2023-03-23T10:38:43;8.75;;;6.18;;
44276;SDS011;29973;43.742;1.236;2023-03-23T10:41:11;9.27;;;6.15;;
44276;SDS011;29973;43.742;1.236;2023-03-23T10:43:39;8.98;;;6.13;;
44276;SDS011;29973;43.742;1.236;2023-03-23T10:46:11;9.70;;;6.45;;
44276;SDS011;29973;43.742;1.236;2023-03-23T10:49:02;12.80;;;6.43;;
44276;SDS011;29973;43.742;1.236;2023-03-23T10:51:36;14.98;;;6.15;;
44276;SDS011;29973;43.742;1.236;2023-03-23T10:54:05;10.98;;;6.28;;
44276;SDS011;29973;43.742;1.236;2023-03-23T10:56:38;8.90;;;5.85;;
44276;SDS011;29973;43.742;1.236;2023-03-23T11:02:18;11.15;;;6.50;;
44276;SDS011;29973;43.742;1.236;2023-03-23T11:05:01;10.32;;;5.82;;
44276;SDS011;29973;43.742;1.236;2023-03-23T11:07:32;8.82;;;6.00;;
44276;SDS011;29973;43.742;1.236;2023-03-23T11:10:05;11.10;;;5.95;;
44276;SDS011;29973;43.742;1.236;2023-03-23T11:13:00;9.43;;;5.30;;
44276;SDS011;29973;43.742;1.236;2023-03-23T11:15:33;7.32;;;5.43;;
44276;SDS011;29973;43.742;1.236;2023-03-23T11:18:12;7.70;;;4.82;;
44276;SDS011;29973;43.742;1.236;2023-03-23T11:20:44;7.95;;;4.35;;
44276;SDS011;29973;43.742;1.236;2023-03-23T11:23:23;7.45;;;4.75;;
44276;SDS011;29973;43.742;1.236;2023-03-23T11:28:27;7.18;;;4.95;;
44276;SDS011;29973;43.742;1.236;2023-03-23T11:30:57;5.63;;;4.20;;
44276;SDS011;29973;43.742;1.236;2023-03-23T11:33:28;7.20;;;5.20;;
44276;SDS011;29973;43.742;1.236;2023-03-23T11:36:00;8.30;;;4.65;;
44276;SDS011;29973;43.742;1.236;2023-03-23T11:38:27;9.05;;;5.82;;
44276;SDS011;29973;43.742;1.236;2023-03-23T11:40:53;6.68;;;4.55;;
44276;SDS011;29973;43.742;1.236;2023-03-23T11:43:20;6.50;;;5.22;;
44276;SDS011;29973;43.742;1.236;2023-03-23T11:45:56;4.95;;;4.35;;
44276;SDS011;29973;43.742;1.236;2023-03-23T11:49:08;5.88;;;4.28;;
44276;SDS011;29973;43.742;1.236;2023-03-23T11:52:02;12.57;;;5.13;;
44276;SDS011;29973;43.742;1.236;2023-03-23T11:57:10;6.45;;;4.80;;
44276;SDS011;29973;43.742;1.236;2023-03-23T11:59:38;11.43;;;5.55;;
44276;SDS011;29973;43.742;1.236;2023-03-23T12:05:06;7.50;;;5.30;;
44276;SDS011;29973;43.742;1.236;2023-03-23T12:08:05;11.55;;;5.72;;
44276;SDS011;29973;43.742;1.236;2023-03-23T12:13:54;9.77;;;6.00;;
44276;SDS011;29973;43.742;1.236;2023-03-23T12:25:01;8.98;;;5.75;;
44276;SDS011;29973;43.742;1.236;2023-03-23T12:40:42;10.07;;;5.93;;
44276;SDS011;29973;43.742;1.236;2023-03-23T12:43:36;8.25;;;5.25;;
44276;SDS011;29973;43.742;1.236;2023-03-23T12:51:49;7.40;;;5.38;;
44276;SDS011;29973;43.742;1.236;2023-03-23T12:57:08;7.22;;;5.18;;
44276;SDS011;29973;43.742;1.236;2023-03-23T13:04:40;9.25;;;4.97;;
44276;SDS011;29973;43.742;1.236;2023-03-23T13:07:12;8.10;;;5.47;;
44276;SDS011;29973;43.742;1.236;2023-03-23T13:12:16;5.55;;;4.57;;
44276;SDS011;29973;43.742;1.236;2023-03-23T13:23:30;12.82;;;5.53;;
44276;SDS011;29973;43.742;1.236;2023-03-23T13:26:02;8.13;;;5.50;;
44276;SDS011;29973;43.742;1.236;2023-03-23T13:31:21;9.60;;;5.22;;
44276;SDS011;29973;43.742;1.236;2023-03-23T13:33:58;6.30;;;5.15;;
44276;SDS011;29973;43.742;1.236;2023-03-23T13:36:51;6.82;;;4.93;;
44276;SDS011;29973;43.742;1.236;2023-03-23T13:39:47;10.30;;;5.60;;
44276;SDS011;29973;43.742;1.236;2023-03-23T13:55:16;8.55;;;5.05;;
44276;SDS011;29973;43.742;1.236;2023-03-23T14:00:33;8.73;;;5.07;;
44276;SDS011;29973;43.742;1.236;2023-03-23T14:06:04;6.22;;;4.97;;
44276;SDS011;29973;43.742;1.236;2023-03-23T14:11:01;9.45;;;5.35;;
44276;SDS011;29973;43.742;1.236;2023-03-23T14:13:39;8.48;;;5.20;;
44276;SDS011;29973;43.742;1.236;2023-03-23T14:16:25;8.48;;;5.35;;
44276;SDS011;29973;43.742;1.236;2023-03-23T14:19:04;8.38;;;4.90;;
44276;SDS011;29973;43.742;1.236;2023-03-23T14:21:42;10.07;;;5.28;;
44276;SDS011;29973;43.742;1.236;2023-03-23T14:24:22;11.15;;;5.60;;
44276;SDS011;29973;43.742;1.236;2023-03-23T14:26:49;8.57;;;5.22;;
44276;SDS011;29973;43.742;1.236;2023-03-23T14:29:17;7.75;;;5.50;;
44276;SDS011;29973;43.742;1.236;2023-03-23T14:31:44;10.85;;;5.45;;
44276;SDS011;29973;43.742;1.236;2023-03-23T14:34:18;11.63;;;5.82;;
44276;SDS011;29973;43.742;1.236;2023-03-23T14:36:45;8.40;;;5.38;;
44276;SDS011;29973;43.742;1.236;2023-03-23T14:41:56;8.15;;;5.90;;
44276;SDS011;29973;43.742;1.236;2023-03-23T14:44:33;9.35;;;6.45;;
44276;SDS011;29973;43.742;1.236;2023-03-23T14:47:12;10.25;;;6.00;;
44276;SDS011;29973;43.742;1.236;2023-03-23T14:49:45;14.65;;;5.53;;
44276;SDS011;29973;43.742;1.236;2023-03-23T14:52:15;12.23;;;5.80;;
44276;SDS011;29973;43.742;1.236;2023-03-23T14:54:43;9.77;;;5.05;;
44276;SDS011;29973;43.742;1.236;2023-03-23T14:59:44;8.60;;;4.88;;
44276;SDS011;29973;43.742;1.236;2023-03-23T15:02:27;11.50;;;5.38;;
44276;SDS011;29973;43.742;1.236;2023-03-23T15:05:09;9.55;;;4.63;;
44276;SDS011;29973;43.742;1.236;2023-03-23T15:07:40;8.27;;;5.80;;
44276;SDS011;29973;43.742;1.236;2023-03-23T15:10:09;10.05;;;5.43;;
44276;SDS011;29973;43.742;1.236;2023-03-23T15:12:43;6.15;;;4.85;;
44276;SDS011;29973;43.742;1.236;2023-03-23T15:15:33;14.52;;;6.40;;
44276;SDS011;29973;43.742;1.236;2023-03-23T15:17:58;11.48;;;6.05;;
44276;SDS011;29973;43.742;1.236;2023-03-23T15:20:29;8.60;;;5.30;;
44276;SDS011;29973;43.742;1.236;2023-03-23T15:23:15;7.70;;;5.25;;
44276;SDS011;29973;43.742;1.236;2023-03-23T15:25:51;9.68;;;6.03;;
44276;SDS011;29973;43.742;1.236;2023-03-23T15:28:20;9.32;;;6.43;;
44276;SDS011;29973;43.742;1.236;2023-03-23T15:30:53;10.80;;;6.45;;
44276;SDS011;29973;43.742;1.236;2023-03-23T15:33:23;10.38;;;6.13;;
44276;SDS011;29973;43.742;1.236;2023-03-23T15:35:54;9.70;;;5.93;;
44276;SDS011;29973;43.742;1.236;2023-03-23T15:38:21;11.40;;;5.90;;
44276;SDS011;29973;43.742;1.236;2023-03-23T15:40:51;9.40;;;5.43;;
44276;SDS011;29973;43.742;1.236;2023-03-23T15:43:21;8.63;;;5.50;;
44276;SDS011;29973;43.742;1.236;2023-03-23T15:45:56;7.75;;;5.22;;
44276;SDS011;29973;43.742;1.236;2023-03-23T15:48:31;9.45;;;5.97;;
44276;SDS011;29973;43.742;1.236;2023-03-23T15:51:21;10.80;;;5.82;;
44276;SDS011;29973;43.742;1.236;2023-03-23T15:53:52;11.55;;;5.65;;
44276;SDS011;29973;43.742;1.236;2023-03-23T15:56:19;8.95;;;6.38;;
44276;SDS011;29973;43.742;1.236;2023-03-23T15:58:45;11.75;;;6.35;;
44276;SDS011;29973;43.742;1.236;2023-03-23T16:01:12;12.52;;;6.47;;
44276;SDS011;29973;43.742;1.236;2023-03-23T16:03:45;12.52;;;6.07;;
44276;SDS011;29973;43.742;1.236;2023-03-23T16:06:14;13.15;;;6.05;;
44276;SDS011;29973;43.742;1.236;2023-03-23T16:08:42;10.00;;;6.30;;
44276;SDS011;29973;43.742;1.236;2023-03-23T16:11:15;8.68;;;5.68;;
44276;SDS011;29973;43.742;1.236;2023-03-23T16:13:42;10.32;;;5.45;;
44276;SDS011;29973;43.742;1.236;2023-03-23T16:16:11;14.20;;;5.85;;
44276;SDS011;29973;43.742;1.236;2023-03-23T16:18:42;15.57;;;5.68;;
44276;SDS011;29973;43.742;1.236;2023-03-23T16:21:08;10.63;;;5.65;;
44276;SDS011;29973;43.742;1.236;2023-03-23T16:23:34;13.30;;;6.18;;
44276;SDS011;29973;43.742;1.236;2023-03-23T16:26:00;15.73;;;6.00;;
44276;SDS011;29973;43.742;1.236;2023-03-23T16:28:26;11.30;;;5.10;;
44276;SDS011;29973;43.742;1.236;2023-03-23T16:30:52;10.35;;;5.18;;
44276;SDS011;29973;43.742;1.236;2023-03-23T16:33:17;10.90;;;5.40;;
44276;SDS011;29973;43.742;1.236;2023-03-23T16:35:43;11.77;;;5.35;;
44276;SDS011;29973;43.742;1.236;2023-03-23T16:38:11;10.02;;;5.47;;
44276;SDS011;29973;43.742;1.236;2023-03-23T16:40:40;11.82;;;5.38;;
44276;SDS011;29973;43.742;1.236;2023-03-23T16:43:07;11.00;;;5.25;;
44276;SDS011;29973;43.742;1.236;2023-03-23T16:45:33;11.38;;;5.10;;
44276;SDS011;29973;43.742;1.236;2023-03-23T16:47:59;15.13;;;6.15;;
44276;SDS011;29973;43.742;1.236;2023-03-23T16:50:26;7.93;;;5.53;;
44276;SDS011;29973;43.742;1.236;2023-03-23T16:52:54;11.15;;;6.10;;
44276;SDS011;29973;43.742;1.236;2023-03-23T16:55:20;10.60;;;5.35;;
44276;SDS011;29973;43.742;1.236;2023-03-23T16:57:46;14.55;;;6.05;;
44276;SDS011;29973;43.742;1.236;2023-03-23T17:00:13;8.38;;;5.10;;
44276;SDS011;29973;43.742;1.236;2023-03-23T17:02:44;12.15;;;5.40;;
44276;SDS011;29973;43.742;1.236;2023-03-23T17:05:11;15.48;;;5.72;;
44276;SDS011;29973;43.742;1.236;2023-03-23T17:07:38;16.33;;;6.32;;
44276;SDS011;29973;43.742;1.236;2023-03-23T17:10:05;17.33;;;5.80;;
44276;SDS011;29973;43.742;1.236;2023-03-23T17:12:33;9.27;;;5.68;;